sensor_id;sensor_type;location;lat;lon;timestamp;pressure;altitude;pressure_sealevel;temperature;humidity
58245;BME280;44550;43.864;25.986;2023-05-20T00:00:33;101394.31;;;19.21;77.74
58245;BME280;44550;43.864;25.986;2023-05-20T00:04:33;101392.25;;;19.36;76.97
58245;BME280;44550;43.864;25.986;2023-05-20T00:08:35;101391.34;;;19.37;76.79
58245;BME280;44550;43.864;25.986;2023-05-20T00:12:34;101396.66;;;19.37;76.28
58245;BME280;44550;43.864;25.986;2023-05-20T00:16:33;101381.22;;;19.12;77.49
58245;BME280;44550;43.864;25.986;2023-05-20T00:20:33;101389.31;;;19.03;78.55
58245;BME280;44550;43.864;25.986;2023-05-20T00:24:34;101379.22;;;18.74;80.17
58245;BME280;44550;43.864;25.986;2023-05-20T00:28:34;101367.66;;;18.21;83.64
58245;BME280;44550;43.864;25.986;2023-05-20T00:32:33;101367.88;;;18.08;84.82
58245;BME280;44550;43.864;25.986;2023-05-20T00:36:33;101364.63;;;17.87;86.46
58245;BME280;44550;43.864;25.986;2023-05-20T00:40:35;101371.94;;;17.65;88.83
58245;BME280;44550;43.864;25.986;2023-05-20T00:44:34;101360.59;;;17.56;90.72
58245;BME280;44550;43.864;25.986;2023-05-20T00:48:35;101352.41;;;17.78;89.90
58245;BME280;44550;43.864;25.986;2023-05-20T00:52:37;101363.88;;;17.74;90.49
58245;BME280;44550;43.864;25.986;2023-05-20T00:56:39;101359.81;;;17.47;92.64
58245;BME280;44550;43.864;25.986;2023-05-20T01:00:38;101356.41;;;17.37;93.91
58245;BME280;44550;43.864;25.986;2023-05-20T01:04:37;101342.09;;;17.53;93.60
58245;BME280;44550;43.864;25.986;2023-05-20T01:08:42;101349.78;;;17.75;92.30
58245;BME280;44550;43.864;25.986;2023-05-20T01:12:45;101351.47;;;17.82;92.00
58245;BME280;44550;43.864;25.986;2023-05-20T01:16:46;101346.50;;;17.54;93.83
58245;BME280;44550;43.864;25.986;2023-05-20T01:20:49;101336.91;;;17.46;94.83
58245;BME280;44550;43.864;25.986;2023-05-20T01:24:51;101344.53;;;17.72;93.77
58245;BME280;44550;43.864;25.986;2023-05-20T01:28:51;101347.53;;;18.12;91.60
58245;BME280;44550;43.864;25.986;2023-05-20T01:32:54;101356.78;;;18.42;89.33
58245;BME280;44550;43.864;25.986;2023-05-20T01:36:58;101357.69;;;18.40;89.65
58245;BME280;44550;43.864;25.986;2023-05-20T01:41:00;101360.72;;;18.72;87.55
58245;BME280;44550;43.864;25.986;2023-05-20T01:45:01;101352.72;;;18.75;86.64
58245;BME280;44550;43.864;25.986;2023-05-20T01:49:01;101350.25;;;18.63;87.37
58245;BME280;44550;43.864;25.986;2023-05-20T01:53:00;101349.84;;;18.34;89.25
58245;BME280;44550;43.864;25.986;2023-05-20T01:57:02;101354.38;;;18.24;90.33
58245;BME280;44550;43.864;25.986;2023-05-20T02:01:01;101353.59;;;18.19;90.94
58245;BME280;44550;43.864;25.986;2023-05-20T02:05:01;101351.22;;;18.00;92.40
58245;BME280;44550;43.864;25.986;2023-05-20T02:09:00;101355.97;;;17.72;94.36
58245;BME280;44550;43.864;25.986;2023-05-20T02:13:02;101359.72;;;17.54;96.09
58245;BME280;44550;43.864;25.986;2023-05-20T02:17:02;101350.97;;;17.49;97.08
58245;BME280;44550;43.864;25.986;2023-05-20T02:21:01;101358.72;;;17.63;96.34
58245;BME280;44550;43.864;25.986;2023-05-20T02:25:01;101363.84;;;17.80;95.71
58245;BME280;44550;43.864;25.986;2023-05-20T02:29:02;101364.53;;;17.96;94.77
58245;BME280;44550;43.864;25.986;2023-05-20T02:33:01;101376.09;;;17.89;94.67
58245;BME280;44550;43.864;25.986;2023-05-20T02:37:01;101374.03;;;18.07;93.23
58245;BME280;44550;43.864;25.986;2023-05-20T02:41:01;101374.19;;;17.97;93.51
58245;BME280;44550;43.864;25.986;2023-05-20T02:45:02;101368.88;;;18.01;93.24
58245;BME280;44550;43.864;25.986;2023-05-20T02:49:01;101368.81;;;18.03;93.03
58245;BME280;44550;43.864;25.986;2023-05-20T02:53:01;101371.34;;;18.11;92.30
58245;BME280;44550;43.864;25.986;2023-05-20T02:57:00;101393.22;;;18.25;91.27
58245;BME280;44550;43.864;25.986;2023-05-20T03:01:01;101392.31;;;18.24;91.32
58245;BME280;44550;43.864;25.986;2023-05-20T03:05:01;101393.44;;;18.10;91.46
58245;BME280;44550;43.864;25.986;2023-05-20T03:09:01;101399.03;;;17.88;92.64
58245;BME280;44550;43.864;25.986;2023-05-20T03:13:00;101399.28;;;17.64;94.15
58245;BME280;44550;43.864;25.986;2023-05-20T03:17:01;101402.69;;;17.76;94.58
58245;BME280;44550;43.864;25.986;2023-05-20T03:21:03;101392.69;;;18.00;92.90
58245;BME280;44550;43.864;25.986;2023-05-20T03:25:02;101396.63;;;18.33;91.18
58245;BME280;44550;43.864;25.986;2023-05-20T03:29:01;101401.84;;;18.39;90.06
58245;BME280;44550;43.864;25.986;2023-05-20T03:33:03;101402.69;;;18.40;89.80
58245;BME280;44550;43.864;25.986;2023-05-20T03:37:03;101402.84;;;18.30;90.46
58245;BME280;44550;43.864;25.986;2023-05-20T03:41:09;101422.38;;;18.22;90.99
58245;BME280;44550;43.864;25.986;2023-05-20T03:45:20;101419.63;;;18.31;90.72
58245;BME280;44550;43.864;25.986;2023-05-20T03:49:23;101421.28;;;18.37;90.06
58245;BME280;44550;43.864;25.986;2023-05-20T03:53:25;101426.03;;;18.13;91.23
58245;BME280;44550;43.864;25.986;2023-05-20T03:57:24;101412.22;;;17.90;92.81
58245;BME280;44550;43.864;25.986;2023-05-20T04:01:27;101416.78;;;17.78;94.34
58245;BME280;44550;43.864;25.986;2023-05-20T04:05:30;101413.19;;;17.82;93.77
58245;BME280;44550;43.864;25.986;2023-05-20T04:09:30;101415.09;;;17.67;95.06
58245;BME280;44550;43.864;25.986;2023-05-20T04:13:32;101421.13;;;17.81;94.93
58245;BME280;44550;43.864;25.986;2023-05-20T04:17:31;101418.50;;;17.81;94.99
58245;BME280;44550;43.864;25.986;2023-05-20T04:21:36;101415.59;;;18.02;93.61
58245;BME280;44550;43.864;25.986;2023-05-20T04:25:36;101418.22;;;18.02;93.53
58245;BME280;44550;43.864;25.986;2023-05-20T04:29:36;101429.88;;;17.88;94.00
58245;BME280;44550;43.864;25.986;2023-05-20T04:33:37;101430.66;;;17.94;94.13
58245;BME280;44550;43.864;25.986;2023-05-20T04:37:38;101427.16;;;17.94;93.63
58245;BME280;44550;43.864;25.986;2023-05-20T04:41:40;101436.88;;;17.93;93.78
58245;BME280;44550;43.864;25.986;2023-05-20T04:45:39;101443.88;;;17.99;93.96
58245;BME280;44550;43.864;25.986;2023-05-20T04:49:41;101436.44;;;18.25;92.68
58245;BME280;44550;43.864;25.986;2023-05-20T04:53:43;101444.31;;;18.31;92.42
58245;BME280;44550;43.864;25.986;2023-05-20T04:57:43;101444.13;;;18.45;91.40
58245;BME280;44550;43.864;25.986;2023-05-20T05:01:42;101444.44;;;18.84;89.79
58245;BME280;44550;43.864;25.986;2023-05-20T05:05:41;101441.44;;;19.54;87.94
58245;BME280;44550;43.864;25.986;2023-05-20T05:09:44;101441.25;;;20.48;80.16
58245;BME280;44550;43.864;25.986;2023-05-20T05:13:46;101443.69;;;20.95;77.86
58245;BME280;44550;43.864;25.986;2023-05-20T05:17:47;101455.44;;;21.87;73.04
58245;BME280;44550;43.864;25.986;2023-05-20T05:21:51;101451.94;;;22.46;70.94
58245;BME280;44550;43.864;25.986;2023-05-20T05:25:52;101459.00;;;22.47;69.63
58245;BME280;44550;43.864;25.986;2023-05-20T05:29:51;101461.69;;;21.86;73.21
58245;BME280;44550;43.864;25.986;2023-05-20T05:33:51;101459.03;;;21.86;72.09
58245;BME280;44550;43.864;25.986;2023-05-20T05:37:50;101449.13;;;21.58;73.20
58245;BME280;44550;43.864;25.986;2023-05-20T05:41:54;101453.75;;;21.19;74.33
58245;BME280;44550;43.864;25.986;2023-05-20T05:45:56;101455.63;;;21.14;74.74
58245;BME280;44550;43.864;25.986;2023-05-20T05:49:57;101461.66;;;20.46;77.37
58245;BME280;44550;43.864;25.986;2023-05-20T05:54:00;101458.69;;;20.19;80.21
58245;BME280;44550;43.864;25.986;2023-05-20T05:58:04;101464.53;;;19.95;81.54
58245;BME280;44550;43.864;25.986;2023-05-20T06:02:04;101468.91;;;19.49;83.74
58245;BME280;44550;43.864;25.986;2023-05-20T06:06:03;101457.94;;;19.20;85.93
58245;BME280;44550;43.864;25.986;2023-05-20T06:10:03;101455.88;;;18.86;87.00
58245;BME280;44550;43.864;25.986;2023-05-20T06:14:08;101466.28;;;18.97;85.93
58245;BME280;44550;43.864;25.986;2023-05-20T06:18:10;101478.69;;;18.96;87.00
58245;BME280;44550;43.864;25.986;2023-05-20T06:22:10;101498.91;;;19.55;85.16
58245;BME280;44550;43.864;25.986;2023-05-20T06:26:09;101491.25;;;19.87;83.26
58245;BME280;44550;43.864;25.986;2023-05-20T06:30:11;101503.31;;;20.02;80.45
58245;BME280;44550;43.864;25.986;2023-05-20T06:34:10;101499.81;;;20.42;79.50
58245;BME280;44550;43.864;25.986;2023-05-20T06:38:10;101487.88;;;21.00;74.94
58245;BME280;44550;43.864;25.986;2023-05-20T06:42:09;101488.66;;;21.41;70.77
58245;BME280;44550;43.864;25.986;2023-05-20T06:46:17;101480.72;;;21.40;72.21
58245;BME280;44550;43.864;25.986;2023-05-20T06:50:16;101480.91;;;21.30;73.29
58245;BME280;44550;43.864;25.986;2023-05-20T06:54:15;101476.72;;;21.89;68.37
58245;BME280;44550;43.864;25.986;2023-05-20T06:58:15;101468.00;;;22.13;65.05
58245;BME280;44550;43.864;25.986;2023-05-20T07:02:16;101464.63;;;21.75;67.56
58245;BME280;44550;43.864;25.986;2023-05-20T07:06:15;101459.44;;;21.72;66.58
58245;BME280;44550;43.864;25.986;2023-05-20T07:14:13;101457.09;;;21.60;65.76
58245;BME280;44550;43.864;25.986;2023-05-20T07:18:15;101447.72;;;21.45;66.62
58245;BME280;44550;43.864;25.986;2023-05-20T07:22:15;101439.03;;;21.39;65.87
58245;BME280;44550;43.864;25.986;2023-05-20T07:26:15;101443.97;;;21.20;66.71
58245;BME280;44550;43.864;25.986;2023-05-20T07:30:14;101430.06;;;21.08;67.04
58245;BME280;44550;43.864;25.986;2023-05-20T07:34:17;101427.09;;;21.21;66.94
58245;BME280;44550;43.864;25.986;2023-05-20T07:38:19;101389.72;;;21.25;66.80
58245;BME280;44550;43.864;25.986;2023-05-20T07:42:19;101377.50;;;21.18;66.54
58245;BME280;44550;43.864;25.986;2023-05-20T07:46:19;101389.28;;;21.09;66.88
58245;BME280;44550;43.864;25.986;2023-05-20T07:50:20;101388.75;;;20.95;67.84
58245;BME280;44550;43.864;25.986;2023-05-20T07:54:21;101385.28;;;20.92;68.20
58245;BME280;44550;43.864;25.986;2023-05-20T07:58:21;101373.72;;;20.19;71.77
58245;BME280;44550;43.864;25.986;2023-05-20T08:02:24;101371.94;;;19.81;73.34
58245;BME280;44550;43.864;25.986;2023-05-20T08:06:32;101371.16;;;20.16;72.80
58245;BME280;44550;43.864;25.986;2023-05-20T08:10:35;101378.09;;;20.22;72.17
58245;BME280;44550;43.864;25.986;2023-05-20T08:14:35;101386.88;;;20.26;71.26
58245;BME280;44550;43.864;25.986;2023-05-20T08:18:34;101403.38;;;20.38;72.04
58245;BME280;44550;43.864;25.986;2023-05-20T08:22:36;101414.53;;;20.56;72.43
58245;BME280;44550;43.864;25.986;2023-05-20T08:26:36;101417.31;;;20.51;72.85
58245;BME280;44550;43.864;25.986;2023-05-20T08:30:35;101420.56;;;20.62;73.51
58245;BME280;44550;43.864;25.986;2023-05-20T08:34:35;101438.66;;;21.18;72.71
58245;BME280;44550;43.864;25.986;2023-05-20T08:38:37;101457.75;;;21.35;71.60
58245;BME280;44550;43.864;25.986;2023-05-20T08:42:39;101458.56;;;21.03;72.79
58245;BME280;44550;43.864;25.986;2023-05-20T08:46:38;101464.97;;;21.29;71.96
58245;BME280;44550;43.864;25.986;2023-05-20T08:50:38;101466.19;;;21.51;71.58
58245;BME280;44550;43.864;25.986;2023-05-20T08:54:42;101466.56;;;21.70;71.26
58245;BME280;44550;43.864;25.986;2023-05-20T08:58:42;101460.06;;;21.80;70.15
58245;BME280;44550;43.864;25.986;2023-05-20T09:02:43;101462.63;;;22.15;67.59
58245;BME280;44550;43.864;25.986;2023-05-20T09:06:49;101455.31;;;21.92;67.74
58245;BME280;44550;43.864;25.986;2023-05-20T09:10:51;101457.72;;;22.32;67.20
58245;BME280;44550;43.864;25.986;2023-05-20T09:14:50;101458.53;;;22.62;64.40
58245;BME280;44550;43.864;25.986;2023-05-20T09:18:49;101447.66;;;22.96;62.87
58245;BME280;44550;43.864;25.986;2023-05-20T09:22:52;101436.72;;;23.04;62.79
58245;BME280;44550;43.864;25.986;2023-05-20T09:26:54;101428.59;;;23.09;61.71
58245;BME280;44550;43.864;25.986;2023-05-20T09:30:56;101428.16;;;22.94;61.74
58245;BME280;44550;43.864;25.986;2023-05-20T09:34:57;101421.56;;;23.06;60.85
58245;BME280;44550;43.864;25.986;2023-05-20T09:38:57;101415.09;;;23.13;60.78
58245;BME280;44550;43.864;25.986;2023-05-20T09:43:01;101407.00;;;23.41;61.24
58245;BME280;44550;43.864;25.986;2023-05-20T09:47:00;101403.72;;;23.33;61.76
58245;BME280;44550;43.864;25.986;2023-05-20T09:51:03;101396.19;;;23.70;58.72
58245;BME280;44550;43.864;25.986;2023-05-20T09:55:04;101395.09;;;23.75;58.26
58245;BME280;44550;43.864;25.986;2023-05-20T09:59:06;101386.25;;;23.97;57.30
58245;BME280;44550;43.864;25.986;2023-05-20T10:03:06;101385.69;;;23.88;58.13
58245;BME280;44550;43.864;25.986;2023-05-20T10:07:10;101387.28;;;24.16;56.75
58245;BME280;44550;43.864;25.986;2023-05-20T10:11:24;101383.31;;;24.26;57.54
58245;BME280;44550;43.864;25.986;2023-05-20T10:15:29;101369.38;;;24.18;57.22
58245;BME280;44550;43.864;25.986;2023-05-20T10:19:32;101372.06;;;24.18;58.30
58245;BME280;44550;43.864;25.986;2023-05-20T10:23:32;101362.03;;;24.23;57.40
58245;BME280;44550;43.864;25.986;2023-05-20T10:27:41;101361.78;;;24.29;56.87
58245;BME280;44550;43.864;25.986;2023-05-20T10:31:47;101347.47;;;24.54;56.59
58245;BME280;44550;43.864;25.986;2023-05-20T10:35:49;101352.69;;;24.57;56.82
58245;BME280;44550;43.864;25.986;2023-05-20T10:39:48;101341.53;;;25.08;55.32
58245;BME280;44550;43.864;25.986;2023-05-20T10:43:57;101328.75;;;25.17;53.32
58245;BME280;44550;43.864;25.986;2023-05-20T10:47:59;101325.56;;;25.27;52.19
58245;BME280;44550;43.864;25.986;2023-05-20T10:52:07;101322.44;;;25.18;52.65
58245;BME280;44550;43.864;25.986;2023-05-20T10:56:15;101307.44;;;25.34;50.24
58245;BME280;44550;43.864;25.986;2023-05-20T11:00:19;101300.56;;;25.47;48.86
58245;BME280;44550;43.864;25.986;2023-05-20T11:04:21;101288.47;;;25.58;49.91
58245;BME280;44550;43.864;25.986;2023-05-20T11:08:27;101283.69;;;25.45;49.73
58245;BME280;44550;43.864;25.986;2023-05-20T11:12:27;101275.00;;;25.78;50.82
58245;BME280;44550;43.864;25.986;2023-05-20T11:16:26;101271.91;;;26.06;48.72
58245;BME280;44550;43.864;25.986;2023-05-20T11:20:28;101263.63;;;26.28;47.81
58245;BME280;44550;43.864;25.986;2023-05-20T11:24:30;101249.56;;;26.59;47.78
58245;BME280;44550;43.864;25.986;2023-05-20T11:28:30;101236.81;;;26.80;47.64
58245;BME280;44550;43.864;25.986;2023-05-20T11:32:29;101233.19;;;26.81;45.52
58245;BME280;44550;43.864;25.986;2023-05-20T11:36:31;101227.72;;;27.00;45.17
58245;BME280;44550;43.864;25.986;2023-05-20T11:40:31;101226.69;;;27.03;44.00
58245;BME280;44550;43.864;25.986;2023-05-20T11:44:45;101218.47;;;27.06;44.58
58245;BME280;44550;43.864;25.986;2023-05-20T11:48:50;101218.94;;;26.97;44.59
58245;BME280;44550;43.864;25.986;2023-05-20T11:52:56;101208.50;;;27.08;43.89
58245;BME280;44550;43.864;25.986;2023-05-20T11:56:55;101205.97;;;27.05;43.83
58245;BME280;44550;43.864;25.986;2023-05-20T12:00:54;101202.06;;;26.94;51.70
58245;BME280;44550;43.864;25.986;2023-05-20T12:05:09;101197.06;;;27.04;52.38
58245;BME280;44550;43.864;25.986;2023-05-20T12:09:11;101188.38;;;27.16;52.07
58245;BME280;44550;43.864;25.986;2023-05-20T12:13:11;101181.06;;;27.03;48.38
58245;BME280;44550;43.864;25.986;2023-05-20T12:17:10;101173.19;;;27.31;48.55
58245;BME280;44550;43.864;25.986;2023-05-20T12:21:10;101167.72;;;27.64;47.07
58245;BME280;44550;43.864;25.986;2023-05-20T12:25:12;101162.16;;;27.99;43.01
58245;BME280;44550;43.864;25.986;2023-05-20T12:29:12;101161.31;;;28.13;40.92
58245;BME280;44550;43.864;25.986;2023-05-20T12:33:11;101148.66;;;28.15;39.82
58245;BME280;44550;43.864;25.986;2023-05-20T12:37:10;101156.47;;;27.58;40.34
58245;BME280;44550;43.864;25.986;2023-05-20T12:41:11;101152.50;;;27.33;40.25
58245;BME280;44550;43.864;25.986;2023-05-20T12:45:11;101142.28;;;27.24;42.68
58245;BME280;44550;43.864;25.986;2023-05-20T12:49:10;101138.88;;;26.89;45.30
58245;BME280;44550;43.864;25.986;2023-05-20T12:53:10;101127.63;;;26.49;41.77
58245;BME280;44550;43.864;25.986;2023-05-20T12:57:11;101114.50;;;26.43;41.64
58245;BME280;44550;43.864;25.986;2023-05-20T13:01:11;101114.28;;;26.47;40.74
58245;BME280;44550;43.864;25.986;2023-05-20T13:05:10;101117.94;;;26.45;41.75
58245;BME280;44550;43.864;25.986;2023-05-20T13:09:10;101134.97;;;26.11;37.71
58245;BME280;44550;43.864;25.986;2023-05-20T13:13:21;101135.38;;;25.67;37.49
58245;BME280;44550;43.864;25.986;2023-05-20T13:17:20;101133.13;;;25.40;37.49
58245;BME280;44550;43.864;25.986;2023-05-20T13:21:19;101133.44;;;25.51;36.47
58245;BME280;44550;43.864;25.986;2023-05-20T13:25:18;101134.03;;;25.58;37.36
58245;BME280;44550;43.864;25.986;2023-05-20T13:29:20;101142.63;;;25.65;37.57
58245;BME280;44550;43.864;25.986;2023-05-20T13:33:19;101161.03;;;25.53;36.94
58245;BME280;44550;43.864;25.986;2023-05-20T13:37:19;101172.47;;;25.57;41.09
58245;BME280;44550;43.864;25.986;2023-05-20T13:41:19;101177.19;;;25.33;44.36
58245;BME280;44550;43.864;25.986;2023-05-20T13:45:20;101173.66;;;24.74;46.06
58245;BME280;44550;43.864;25.986;2023-05-20T13:49:19;101179.44;;;24.45;44.37
58245;BME280;44550;43.864;25.986;2023-05-20T13:53:19;101179.47;;;24.23;44.53
58245;BME280;44550;43.864;25.986;2023-05-20T13:57:18;101173.16;;;24.24;44.82
58245;BME280;44550;43.864;25.986;2023-05-20T14:01:20;101177.03;;;23.96;44.29
58245;BME280;44550;43.864;25.986;2023-05-20T14:05:19;101160.66;;;24.04;44.34
58245;BME280;44550;43.864;25.986;2023-05-20T14:09:19;101152.00;;;23.77;44.68
58245;BME280;44550;43.864;25.986;2023-05-20T14:13:19;101146.91;;;23.71;44.72
58245;BME280;44550;43.864;25.986;2023-05-20T14:17:21;101137.28;;;23.66;45.45
58245;BME280;44550;43.864;25.986;2023-05-20T14:21:20;101126.44;;;23.49;45.79
58245;BME280;44550;43.864;25.986;2023-05-20T14:25:19;101116.13;;;23.62;45.70
58245;BME280;44550;43.864;25.986;2023-05-20T14:29:19;101111.84;;;23.80;45.25
58245;BME280;44550;43.864;25.986;2023-05-20T14:33:20;101102.00;;;23.80;45.59
58245;BME280;44550;43.864;25.986;2023-05-20T14:37:20;101099.81;;;23.90;45.68
58245;BME280;44550;43.864;25.986;2023-05-20T14:41:19;101110.59;;;24.09;44.69
58245;BME280;44550;43.864;25.986;2023-05-20T14:45:18;101105.72;;;24.19;44.22
58245;BME280;44550;43.864;25.986;2023-05-20T14:49:19;101095.03;;;24.19;44.18
58245;BME280;44550;43.864;25.986;2023-05-20T14:53:19;101093.75;;;24.27;43.55
58245;BME280;44550;43.864;25.986;2023-05-20T14:57:18;101087.69;;;24.44;43.22
58245;BME280;44550;43.864;25.986;2023-05-20T15:01:18;101073.09;;;24.31;41.07
58245;BME280;44550;43.864;25.986;2023-05-20T15:05:19;101073.59;;;24.59;41.54
58245;BME280;44550;43.864;25.986;2023-05-20T15:09:19;101074.91;;;24.70;40.83
58245;BME280;44550;43.864;25.986;2023-05-20T15:13:18;101071.66;;;24.82;40.67
58245;BME280;44550;43.864;25.986;2023-05-20T15:17:18;101077.53;;;24.90;40.45
58245;BME280;44550;43.864;25.986;2023-05-20T15:21:19;101084.88;;;25.04;44.52
58245;BME280;44550;43.864;25.986;2023-05-20T15:25:19;101079.03;;;25.34;45.27
58245;BME280;44550;43.864;25.986;2023-05-20T15:29:18;101078.34;;;25.65;44.93
58245;BME280;44550;43.864;25.986;2023-05-20T15:33:17;101075.50;;;25.68;44.46
58245;BME280;44550;43.864;25.986;2023-05-20T15:37:19;101074.84;;;25.63;44.36
58245;BME280;44550;43.864;25.986;2023-05-20T15:41:18;101081.16;;;25.44;45.07
58245;BME280;44550;43.864;25.986;2023-05-20T15:45:18;101080.97;;;25.30;45.89
58245;BME280;44550;43.864;25.986;2023-05-20T15:49:18;101074.75;;;25.11;46.66
58245;BME280;44550;43.864;25.986;2023-05-20T15:53:19;101078.34;;;25.09;47.42
58245;BME280;44550;43.864;25.986;2023-05-20T15:57:18;101084.31;;;24.97;48.05
58245;BME280;44550;43.864;25.986;2023-05-20T16:01:17;101081.63;;;24.78;48.59
58245;BME280;44550;43.864;25.986;2023-05-20T16:05:18;101082.91;;;24.70;49.00
58245;BME280;44550;43.864;25.986;2023-05-20T16:13:23;101089.66;;;24.78;49.25
58245;BME280;44550;43.864;25.986;2023-05-20T16:17:26;101089.00;;;24.92;48.91
58245;BME280;44550;43.864;25.986;2023-05-20T16:21:25;101092.34;;;24.97;49.53
58245;BME280;44550;43.864;25.986;2023-05-20T16:25:24;101090.44;;;24.99;50.08
58245;BME280;44550;43.864;25.986;2023-05-20T16:29:25;101099.13;;;25.04;50.04
58245;BME280;44550;43.864;25.986;2023-05-20T16:33:25;101102.97;;;25.18;50.16
58245;BME280;44550;43.864;25.986;2023-05-20T16:37:24;101096.25;;;25.28;49.63
58245;BME280;44550;43.864;25.986;2023-05-20T16:41:23;101094.56;;;25.25;49.95
58245;BME280;44550;43.864;25.986;2023-05-20T16:45:25;101093.41;;;25.31;49.81
58245;BME280;44550;43.864;25.986;2023-05-20T16:49:24;101089.50;;;25.38;49.36
58245;BME280;44550;43.864;25.986;2023-05-20T16:53:23;101098.97;;;25.26;50.48
58245;BME280;44550;43.864;25.986;2023-05-20T16:57:23;101098.63;;;25.15;50.92
58245;BME280;44550;43.864;25.986;2023-05-20T17:01:24;101101.25;;;25.17;51.00
58245;BME280;44550;43.864;25.986;2023-05-20T17:05:25;101088.44;;;25.23;50.74
58245;BME280;44550;43.864;25.986;2023-05-20T17:09:24;101079.38;;;25.26;51.44
58245;BME280;44550;43.864;25.986;2023-05-20T17:13:27;101071.88;;;25.15;52.21
58245;BME280;44550;43.864;25.986;2023-05-20T17:17:29;101082.53;;;25.17;51.98
58245;BME280;44550;43.864;25.986;2023-05-20T17:21:28;101091.53;;;24.95;52.58
58245;BME280;44550;43.864;25.986;2023-05-20T17:25:28;101092.25;;;24.80;53.56
58245;BME280;44550;43.864;25.986;2023-05-20T17:29:26;101094.97;;;24.41;54.66
58245;BME280;44550;43.864;25.986;2023-05-20T17:33:28;101098.50;;;24.21;56.43
58245;BME280;44550;43.864;25.986;2023-05-20T17:37:27;101101.41;;;23.74;57.62
58245;BME280;44550;43.864;25.986;2023-05-20T17:41:27;101102.44;;;23.48;58.30
58245;BME280;44550;43.864;25.986;2023-05-20T17:45:26;101100.47;;;22.85;60.70
58245;BME280;44550;43.864;25.986;2023-05-20T17:49:30;101098.31;;;22.48;61.45
58245;BME280;44550;43.864;25.986;2023-05-20T17:53:29;101095.97;;;22.15;61.54
58245;BME280;44550;43.864;25.986;2023-05-20T17:57:31;101103.34;;;21.80;61.86
58245;BME280;44550;43.864;25.986;2023-05-20T18:01:30;101092.59;;;21.57;62.08
58245;BME280;44550;43.864;25.986;2023-05-20T18:05:34;101093.31;;;21.34;62.61
58245;BME280;44550;43.864;25.986;2023-05-20T18:09:32;101093.50;;;21.28;62.37
58245;BME280;44550;43.864;25.986;2023-05-20T18:13:32;101098.44;;;21.12;62.25
58245;BME280;44550;43.864;25.986;2023-05-20T18:17:31;101093.63;;;20.97;62.98
58245;BME280;44550;43.864;25.986;2023-05-20T18:21:34;101105.13;;;20.97;62.76
58245;BME280;44550;43.864;25.986;2023-05-20T18:25:33;101115.19;;;20.86;62.95
58245;BME280;44550;43.864;25.986;2023-05-20T18:29:33;101105.53;;;20.83;62.29
58245;BME280;44550;43.864;25.986;2023-05-20T18:33:32;101113.09;;;20.66;63.11
58245;BME280;44550;43.864;25.986;2023-05-20T18:37:37;101108.88;;;20.60;62.79
58245;BME280;44550;43.864;25.986;2023-05-20T18:41:38;101116.22;;;20.49;63.21
58245;BME280;44550;43.864;25.986;2023-05-20T18:45:41;101124.47;;;20.40;63.98
58245;BME280;44550;43.864;25.986;2023-05-20T18:49:41;101125.00;;;20.20;64.83
58245;BME280;44550;43.864;25.986;2023-05-20T18:53:45;101124.56;;;20.03;65.66
58245;BME280;44550;43.864;25.986;2023-05-20T18:57:44;101128.06;;;20.05;65.97
58245;BME280;44550;43.864;25.986;2023-05-20T19:01:46;101128.44;;;19.91;66.68
58245;BME280;44550;43.864;25.986;2023-05-20T19:05:47;101127.31;;;19.62;68.00
58245;BME280;44550;43.864;25.986;2023-05-20T19:09:48;101132.97;;;19.48;69.09
58245;BME280;44550;43.864;25.986;2023-05-20T19:13:47;101135.63;;;19.48;69.03
58245;BME280;44550;43.864;25.986;2023-05-20T19:17:47;101131.25;;;19.47;68.87
58245;BME280;44550;43.864;25.986;2023-05-20T19:21:46;101135.25;;;19.27;69.82
58245;BME280;44550;43.864;25.986;2023-05-20T19:25:48;101134.34;;;19.28;69.92
58245;BME280;44550;43.864;25.986;2023-05-20T19:29:47;101126.59;;;19.18;70.41
58245;BME280;44550;43.864;25.986;2023-05-20T19:33:46;101124.88;;;19.16;70.84
58245;BME280;44550;43.864;25.986;2023-05-20T19:37:46;101122.31;;;19.13;71.00
58245;BME280;44550;43.864;25.986;2023-05-20T19:41:47;101133.78;;;19.13;71.17
58245;BME280;44550;43.864;25.986;2023-05-20T19:45:46;101128.47;;;19.13;71.20
58245;BME280;44550;43.864;25.986;2023-05-20T19:49:46;101127.44;;;19.20;70.99
58245;BME280;44550;43.864;25.986;2023-05-20T19:53:45;101131.72;;;19.28;70.52
58245;BME280;44550;43.864;25.986;2023-05-20T19:57:47;101148.03;;;19.46;69.76
58245;BME280;44550;43.864;25.986;2023-05-20T20:01:49;101147.47;;;19.34;69.85
58245;BME280;44550;43.864;25.986;2023-05-20T20:05:49;101150.06;;;19.35;70.35
58245;BME280;44550;43.864;25.986;2023-05-20T20:09:48;101143.25;;;19.23;70.93
58245;BME280;44550;43.864;25.986;2023-05-20T20:13:53;101138.84;;;19.24;70.83
58245;BME280;44550;43.864;25.986;2023-05-20T20:17:54;101134.50;;;19.21;71.09
58245;BME280;44550;43.864;25.986;2023-05-20T20:21:54;101137.81;;;19.31;70.17
58245;BME280;44550;43.864;25.986;2023-05-20T20:25:54;101140.16;;;19.43;69.95
58245;BME280;44550;43.864;25.986;2023-05-20T20:29:55;101135.44;;;19.56;69.28
58245;BME280;44550;43.864;25.986;2023-05-20T20:33:54;101123.66;;;19.69;68.79
58245;BME280;44550;43.864;25.986;2023-05-20T20:37:54;101119.97;;;19.75;68.98
58245;BME280;44550;43.864;25.986;2023-05-20T20:41:53;101116.78;;;19.61;69.70
58245;BME280;44550;43.864;25.986;2023-05-20T20:45:56;101120.56;;;19.51;70.04
58245;BME280;44550;43.864;25.986;2023-05-20T20:49:55;101124.63;;;19.28;71.04